sensor_id;sensor_type;location;lat;lon;timestamp;pressure;altitude;pressure_sealevel;temperature;humidity
6565;BME280;3316;44.118;27.258;2023-08-07T00:01:44;99987.75;;;22.71;100.00
6565;BME280;3316;44.118;27.258;2023-08-07T00:04:09;99997.09;;;22.65;100.00
6565;BME280;3316;44.118;27.258;2023-08-07T00:06:34;99985.16;;;22.57;100.00
6565;BME280;3316;44.118;27.258;2023-08-07T00:09:00;99984.38;;;22.55;100.00
6565;BME280;3316;44.118;27.258;2023-08-07T00:11:25;99982.34;;;22.46;100.00
6565;BME280;3316;44.118;27.258;2023-08-07T00:13:53;99955.00;;;22.28;100.00
6565;BME280;3316;44.118;27.258;2023-08-07T00:16:18;99983.94;;;22.36;100.00
6565;BME280;3316;44.118;27.258;2023-08-07T00:18:43;99992.75;;;22.38;100.00
6565;BME280;3316;44.118;27.258;2023-08-07T00:21:09;100002.41;;;22.40;100.00
6565;BME280;3316;44.118;27.258;2023-08-07T00:23:34;100004.34;;;22.38;100.00
6565;BME280;3316;44.118;27.258;2023-08-07T00:26:00;100003.13;;;22.30;100.00
6565;BME280;3316;44.118;27.258;2023-08-07T00:28:25;100013.25;;;22.39;100.00
6565;BME280;3316;44.118;27.258;2023-08-07T00:30:51;100003.03;;;22.31;100.00
6565;BME280;3316;44.118;27.258;2023-08-07T00:33:16;100005.63;;;22.33;100.00
6565;BME280;3316;44.118;27.258;2023-08-07T00:35:41;100015.78;;;22.28;100.00
6565;BME280;3316;44.118;27.258;2023-08-07T00:38:07;100014.19;;;22.25;100.00
6565;BME280;3316;44.118;27.258;2023-08-07T00:40:39;100006.84;;;22.14;100.00
6565;BME280;3316;44.118;27.258;2023-08-07T00:43:05;100021.00;;;22.17;100.00
6565;BME280;3316;44.118;27.258;2023-08-07T00:45:38;99983.53;;;21.90;100.00
6565;BME280;3316;44.118;27.258;2023-08-07T00:48:05;100018.75;;;22.10;100.00
6565;BME280;3316;44.118;27.258;2023-08-07T00:50:31;100015.72;;;22.02;100.00
6565;BME280;3316;44.118;27.258;2023-08-07T00:52:57;100028.69;;;22.08;100.00
6565;BME280;3316;44.118;27.258;2023-08-07T00:55:22;100024.72;;;22.01;100.00
6565;BME280;3316;44.118;27.258;2023-08-07T00:57:48;100015.03;;;21.86;100.00
6565;BME280;3316;44.118;27.258;2023-08-07T01:00:14;100026.41;;;21.90;100.00
6565;BME280;3316;44.118;27.258;2023-08-07T01:02:42;100032.28;;;21.82;100.00
6565;BME280;3316;44.118;27.258;2023-08-07T01:07:34;100016.84;;;21.72;100.00
6565;BME280;3316;44.118;27.258;2023-08-07T01:10:00;100039.69;;;21.77;100.00
6565;BME280;3316;44.118;27.258;2023-08-07T01:12:36;100039.53;;;21.80;100.00
6565;BME280;3316;44.118;27.258;2023-08-07T01:15:13;100033.41;;;21.78;100.00
6565;BME280;3316;44.118;27.258;2023-08-07T01:17:39;100041.72;;;21.74;100.00
6565;BME280;3316;44.118;27.258;2023-08-07T01:20:05;99948.47;;;21.13;100.00
6565;BME280;3316;44.118;27.258;2023-08-07T01:22:32;100046.91;;;21.63;100.00
6565;BME280;3316;44.118;27.258;2023-08-07T01:24:57;100011.88;;;21.39;100.00
6565;BME280;3316;44.118;27.258;2023-08-07T01:30:31;100027.28;;;21.36;100.00
6565;BME280;3316;44.118;27.258;2023-08-07T01:35:43;100064.81;;;21.48;100.00
6565;BME280;3316;44.118;27.258;2023-08-07T01:38:11;100049.25;;;21.41;100.00
6565;BME280;3316;44.118;27.258;2023-08-07T01:40:37;100060.50;;;21.46;100.00
6565;BME280;3316;44.118;27.258;2023-08-07T01:43:04;100066.19;;;21.41;100.00
6565;BME280;3316;44.118;27.258;2023-08-07T01:45:29;100062.63;;;21.41;100.00
6565;BME280;3316;44.118;27.258;2023-08-07T01:47:55;100058.72;;;21.32;100.00
6565;BME280;3316;44.118;27.258;2023-08-07T01:50:21;100075.03;;;21.42;100.00
6565;BME280;3316;44.118;27.258;2023-08-07T01:52:47;100062.16;;;21.34;100.00
6565;BME280;3316;44.118;27.258;2023-08-07T01:55:16;100048.97;;;21.17;100.00
6565;BME280;3316;44.118;27.258;2023-08-07T01:57:42;100053.00;;;21.10;100.00
6565;BME280;3316;44.118;27.258;2023-08-07T02:00:08;100091.69;;;21.33;100.00
6565;BME280;3316;44.118;27.258;2023-08-07T02:02:35;100086.06;;;21.23;100.00
6565;BME280;3316;44.118;27.258;2023-08-07T02:05:01;100078.13;;;21.21;100.00
6565;BME280;3316;44.118;27.258;2023-08-07T02:07:26;100094.94;;;21.23;100.00
6565;BME280;3316;44.118;27.258;2023-08-07T02:09:52;100102.13;;;21.23;100.00
6565;BME280;3316;44.118;27.258;2023-08-07T02:12:17;100036.91;;;20.82;100.00
6565;BME280;3316;44.118;27.258;2023-08-07T02:14:43;100098.28;;;21.13;100.00
6565;BME280;3316;44.118;27.258;2023-08-07T02:17:08;100098.00;;;21.17;100.00
6565;BME280;3316;44.118;27.258;2023-08-07T02:19:33;100112.63;;;21.12;100.00
6565;BME280;3316;44.118;27.258;2023-08-07T02:21:59;100093.69;;;21.01;100.00
6565;BME280;3316;44.118;27.258;2023-08-07T02:24:24;100108.22;;;21.11;100.00
6565;BME280;3316;44.118;27.258;2023-08-07T02:26:50;100099.03;;;21.01;100.00
6565;BME280;3316;44.118;27.258;2023-08-07T02:29:15;100028.50;;;20.60;100.00
6565;BME280;3316;44.118;27.258;2023-08-07T02:31:41;100107.81;;;21.03;100.00
6565;BME280;3316;44.118;27.258;2023-08-07T02:34:06;100120.59;;;20.98;100.00
6565;BME280;3316;44.118;27.258;2023-08-07T02:36:32;100118.50;;;20.89;100.00
6565;BME280;3316;44.118;27.258;2023-08-07T02:38:57;100110.06;;;20.81;100.00
6565;BME280;3316;44.118;27.258;2023-08-07T02:41:23;100121.59;;;20.81;100.00
6565;BME280;3316;44.118;27.258;2023-08-07T02:43:48;100128.84;;;20.79;100.00
6565;BME280;3316;44.118;27.258;2023-08-07T02:46:13;100124.84;;;20.72;100.00
6565;BME280;3316;44.118;27.258;2023-08-07T02:48:39;100133.06;;;20.69;100.00
6565;BME280;3316;44.118;27.258;2023-08-07T02:51:05;100143.75;;;20.69;100.00
6565;BME280;3316;44.118;27.258;2023-08-07T02:53:31;100145.81;;;20.64;100.00
6565;BME280;3316;44.118;27.258;2023-08-07T02:55:56;100149.81;;;20.57;100.00
6565;BME280;3316;44.118;27.258;2023-08-07T02:58:22;100153.44;;;20.56;100.00
6565;BME280;3316;44.118;27.258;2023-08-07T03:00:47;100149.16;;;20.54;100.00
6565;BME280;3316;44.118;27.258;2023-08-07T03:03:12;100146.06;;;20.46;100.00
6565;BME280;3316;44.118;27.258;2023-08-07T03:05:38;100149.75;;;20.43;100.00
6565;BME280;3316;44.118;27.258;2023-08-07T03:08:03;100160.44;;;20.43;100.00
6565;BME280;3316;44.118;27.258;2023-08-07T03:10:29;100126.75;;;20.25;100.00
6565;BME280;3316;44.118;27.258;2023-08-07T03:12:54;100132.97;;;20.25;100.00
6565;BME280;3316;44.118;27.258;2023-08-07T03:15:20;100149.59;;;20.30;100.00
6565;BME280;3316;44.118;27.258;2023-08-07T03:17:45;100157.59;;;20.30;100.00
6565;BME280;3316;44.118;27.258;2023-08-07T03:20:11;100162.03;;;20.31;100.00
6565;BME280;3316;44.118;27.258;2023-08-07T03:22:36;100162.69;;;20.35;100.00
6565;BME280;3316;44.118;27.258;2023-08-07T03:25:02;100158.81;;;20.40;100.00
6565;BME280;3316;44.118;27.258;2023-08-07T03:27:27;100158.13;;;20.37;100.00
6565;BME280;3316;44.118;27.258;2023-08-07T03:29:53;100182.38;;;20.64;100.00
6565;BME280;3316;44.118;27.258;2023-08-07T03:32:19;100189.59;;;20.77;100.00
6565;BME280;3316;44.118;27.258;2023-08-07T03:34:44;100135.84;;;20.52;100.00
6565;BME280;3316;44.118;27.258;2023-08-07T03:37:09;100153.84;;;20.94;100.00
6565;BME280;3316;44.118;27.258;2023-08-07T03:39:35;100195.50;;;21.42;100.00
6565;BME280;3316;44.118;27.258;2023-08-07T03:42:00;100178.28;;;21.60;100.00
6565;BME280;3316;44.118;27.258;2023-08-07T03:44:26;100191.41;;;21.78;100.00
6565;BME280;3316;44.118;27.258;2023-08-07T03:46:51;100190.50;;;22.06;100.00
6565;BME280;3316;44.118;27.258;2023-08-07T03:49:17;100185.09;;;21.93;100.00
6565;BME280;3316;44.118;27.258;2023-08-07T03:51:42;100197.88;;;22.43;100.00
6565;BME280;3316;44.118;27.258;2023-08-07T03:54:08;100203.97;;;22.33;100.00
6565;BME280;3316;44.118;27.258;2023-08-07T03:56:33;100183.56;;;21.89;100.00
6565;BME280;3316;44.118;27.258;2023-08-07T03:59:02;100197.50;;;22.08;100.00
6565;BME280;3316;44.118;27.258;2023-08-07T04:01:27;100197.09;;;22.14;100.00
6565;BME280;3316;44.118;27.258;2023-08-07T04:03:53;100204.38;;;22.12;100.00
6565;BME280;3316;44.118;27.258;2023-08-07T04:06:18;100200.31;;;22.34;100.00
6565;BME280;3316;44.118;27.258;2023-08-07T04:08:47;100205.63;;;22.21;100.00
6565;BME280;3316;44.118;27.258;2023-08-07T04:11:13;100219.84;;;22.36;100.00
6565;BME280;3316;44.118;27.258;2023-08-07T04:13:38;100222.41;;;22.37;100.00
6565;BME280;3316;44.118;27.258;2023-08-07T04:16:04;100209.75;;;22.80;100.00
6565;BME280;3316;44.118;27.258;2023-08-07T04:18:31;100222.88;;;22.97;100.00
6565;BME280;3316;44.118;27.258;2023-08-07T04:20:57;100221.16;;;23.35;100.00
6565;BME280;3316;44.118;27.258;2023-08-07T04:23:23;100213.88;;;22.98;100.00
6565;BME280;3316;44.118;27.258;2023-08-07T04:25:49;100166.25;;;22.62;100.00
6565;BME280;3316;44.118;27.258;2023-08-07T04:28:15;100217.53;;;23.10;100.00
6565;BME280;3316;44.118;27.258;2023-08-07T04:30:41;100211.09;;;22.99;100.00
6565;BME280;3316;44.118;27.258;2023-08-07T04:33:07;100228.72;;;23.16;100.00
6565;BME280;3316;44.118;27.258;2023-08-07T04:35:33;100223.63;;;23.76;100.00
6565;BME280;3316;44.118;27.258;2023-08-07T04:37:59;100221.38;;;23.82;100.00
6565;BME280;3316;44.118;27.258;2023-08-07T04:40:25;100233.53;;;23.75;100.00
6565;BME280;3316;44.118;27.258;2023-08-07T04:42:50;100246.19;;;23.86;100.00
6565;BME280;3316;44.118;27.258;2023-08-07T04:45:16;100248.53;;;24.16;100.00
6565;BME280;3316;44.118;27.258;2023-08-07T04:47:41;100261.31;;;24.61;100.00
6565;BME280;3316;44.118;27.258;2023-08-07T04:50:07;100261.41;;;24.72;100.00
6565;BME280;3316;44.118;27.258;2023-08-07T04:52:34;100252.09;;;24.52;100.00
6565;BME280;3316;44.118;27.258;2023-08-07T04:54:59;100264.34;;;25.27;100.00
6565;BME280;3316;44.118;27.258;2023-08-07T04:57:25;100251.50;;;25.66;100.00
6565;BME280;3316;44.118;27.258;2023-08-07T04:59:52;100254.78;;;25.69;97.12
6565;BME280;3316;44.118;27.258;2023-08-07T05:02:17;100246.44;;;25.50;99.32
6565;BME280;3316;44.118;27.258;2023-08-07T05:04:43;100256.28;;;25.62;98.53
6565;BME280;3316;44.118;27.258;2023-08-07T05:07:08;100242.28;;;24.88;100.00
6565;BME280;3316;44.118;27.258;2023-08-07T05:09:35;100247.41;;;24.67;100.00
6565;BME280;3316;44.118;27.258;2023-08-07T05:12:00;100257.88;;;24.59;100.00
6565;BME280;3316;44.118;27.258;2023-08-07T05:14:26;100265.75;;;24.86;100.00
6565;BME280;3316;44.118;27.258;2023-08-07T05:16:51;100262.13;;;25.21;100.00
6565;BME280;3316;44.118;27.258;2023-08-07T05:19:17;100253.56;;;25.62;98.89
6565;BME280;3316;44.118;27.258;2023-08-07T05:21:42;100257.69;;;25.44;97.73
6565;BME280;3316;44.118;27.258;2023-08-07T05:24:07;100257.53;;;25.91;96.69
6565;BME280;3316;44.118;27.258;2023-08-07T05:26:33;100269.25;;;26.57;94.67
6565;BME280;3316;44.118;27.258;2023-08-07T05:28:58;100265.59;;;26.80;89.24
6565;BME280;3316;44.118;27.258;2023-08-07T05:31:24;100280.72;;;26.16;91.91
6565;BME280;3316;44.118;27.258;2023-08-07T05:33:50;100275.50;;;24.99;97.60
6565;BME280;3316;44.118;27.258;2023-08-07T05:36:15;100293.31;;;25.47;96.35
6565;BME280;3316;44.118;27.258;2023-08-07T05:38:41;100277.22;;;25.81;93.30
6565;BME280;3316;44.118;27.258;2023-08-07T05:41:08;100288.25;;;26.88;89.12
6565;BME280;3316;44.118;27.258;2023-08-07T05:43:34;100302.44;;;27.44;84.63
6565;BME280;3316;44.118;27.258;2023-08-07T05:45:59;100287.44;;;26.43;86.49
6565;BME280;3316;44.118;27.258;2023-08-07T05:48:25;100281.44;;;25.96;89.92
6565;BME280;3316;44.118;27.258;2023-08-07T05:50:51;100286.69;;;25.97;92.17
6565;BME280;3316;44.118;27.258;2023-08-07T05:53:16;100288.94;;;26.14;88.91
6565;BME280;3316;44.118;27.258;2023-08-07T05:55:42;100282.09;;;25.30;94.68
6565;BME280;3316;44.118;27.258;2023-08-07T05:58:08;100276.47;;;24.75;97.13
6565;BME280;3316;44.118;27.258;2023-08-07T06:00:33;100276.91;;;24.68;99.67
6565;BME280;3316;44.118;27.258;2023-08-07T06:02:59;100294.59;;;24.96;100.00
6565;BME280;3316;44.118;27.258;2023-08-07T06:05:24;100284.41;;;25.23;97.88
6565;BME280;3316;44.118;27.258;2023-08-07T06:07:50;100281.09;;;25.20;98.84
6565;BME280;3316;44.118;27.258;2023-08-07T06:10:15;100272.59;;;25.02;100.00
6565;BME280;3316;44.118;27.258;2023-08-07T06:12:41;100286.25;;;24.76;98.87
6565;BME280;3316;44.118;27.258;2023-08-07T06:15:06;100285.00;;;24.56;99.39
6565;BME280;3316;44.118;27.258;2023-08-07T06:17:32;100262.41;;;24.58;100.00
6565;BME280;3316;44.118;27.258;2023-08-07T06:19:57;100276.13;;;24.43;100.00
6565;BME280;3316;44.118;27.258;2023-08-07T06:22:23;100257.56;;;24.15;100.00
6565;BME280;3316;44.118;27.258;2023-08-07T06:24:48;100262.38;;;24.35;100.00
6565;BME280;3316;44.118;27.258;2023-08-07T06:27:14;100196.06;;;23.98;100.00
6565;BME280;3316;44.118;27.258;2023-08-07T06:29:40;100240.16;;;24.20;100.00
6565;BME280;3316;44.118;27.258;2023-08-07T06:32:05;100280.75;;;24.41;100.00
6565;BME280;3316;44.118;27.258;2023-08-07T06:34:31;100288.81;;;24.41;100.00
6565;BME280;3316;44.118;27.258;2023-08-07T06:36:57;100286.50;;;24.73;100.00
6565;BME280;3316;44.118;27.258;2023-08-07T06:39:22;100295.84;;;24.67;100.00
6565;BME280;3316;44.118;27.258;2023-08-07T06:41:47;100315.09;;;24.73;100.00
6565;BME280;3316;44.118;27.258;2023-08-07T06:44:13;100298.13;;;24.73;100.00
6565;BME280;3316;44.118;27.258;2023-08-07T06:46:38;100306.94;;;24.75;100.00
6565;BME280;3316;44.118;27.258;2023-08-07T06:49:04;100316.47;;;24.79;100.00
6565;BME280;3316;44.118;27.258;2023-08-07T06:51:29;100327.91;;;25.06;97.84
6565;BME280;3316;44.118;27.258;2023-08-07T06:53:55;100313.78;;;25.26;96.51
6565;BME280;3316;44.118;27.258;2023-08-07T06:56:21;100316.94;;;25.44;96.14
6565;BME280;3316;44.118;27.258;2023-08-07T06:58:46;100322.03;;;25.36;94.87
6565;BME280;3316;44.118;27.258;2023-08-07T07:01:12;100324.34;;;25.29;96.30
6565;BME280;3316;44.118;27.258;2023-08-07T07:03:37;100333.50;;;25.39;94.07
6565;BME280;3316;44.118;27.258;2023-08-07T07:06:02;100332.28;;;25.20;93.28
6565;BME280;3316;44.118;27.258;2023-08-07T07:08:28;100318.66;;;25.10;94.11
6565;BME280;3316;44.118;27.258;2023-08-07T07:10:53;100326.47;;;25.37;92.44
6565;BME280;3316;44.118;27.258;2023-08-07T07:13:19;100320.66;;;25.30;93.89
6565;BME280;3316;44.118;27.258;2023-08-07T07:15:44;100324.69;;;25.25;92.07
6565;BME280;3316;44.118;27.258;2023-08-07T07:18:10;100331.94;;;25.59;91.74
6565;BME280;3316;44.118;27.258;2023-08-07T07:20:35;100343.06;;;25.89;89.78
6565;BME280;3316;44.118;27.258;2023-08-07T07:23:01;100339.28;;;25.92;87.15
6565;BME280;3316;44.118;27.258;2023-08-07T07:25:26;100338.69;;;26.10;87.92
6565;BME280;3316;44.118;27.258;2023-08-07T07:27:52;100339.34;;;26.25;89.53
6565;BME280;3316;44.118;27.258;2023-08-07T07:30:17;100328.31;;;26.39;87.53
6565;BME280;3316;44.118;27.258;2023-08-07T07:32:42;100322.00;;;26.61;88.60
6565;BME280;3316;44.118;27.258;2023-08-07T07:35:08;100326.56;;;26.71;87.51
6565;BME280;3316;44.118;27.258;2023-08-07T07:37:34;100325.81;;;26.91;88.12
6565;BME280;3316;44.118;27.258;2023-08-07T07:39:59;100347.81;;;27.18;85.95
6565;BME280;3316;44.118;27.258;2023-08-07T07:42:25;100346.91;;;27.40;80.93
6565;BME280;3316;44.118;27.258;2023-08-07T07:44:50;100349.16;;;27.56;78.58
6565;BME280;3316;44.118;27.258;2023-08-07T07:47:16;100357.19;;;27.46;80.30
6565;BME280;3316;44.118;27.258;2023-08-07T07:49:45;100354.41;;;27.25;82.48
6565;BME280;3316;44.118;27.258;2023-08-07T07:52:13;100357.09;;;27.25;84.75
6565;BME280;3316;44.118;27.258;2023-08-07T07:54:38;100359.31;;;27.31;77.79
6565;BME280;3316;44.118;27.258;2023-08-07T07:57:04;100357.38;;;27.22;77.68
6565;BME280;3316;44.118;27.258;2023-08-07T07:59:29;100356.25;;;27.36;76.82
6565;BME280;3316;44.118;27.258;2023-08-07T08:01:55;100349.94;;;27.47;72.96
6565;BME280;3316;44.118;27.258;2023-08-07T08:04:20;100360.44;;;27.61;72.45
6565;BME280;3316;44.118;27.258;2023-08-07T08:06:46;100353.44;;;27.58;72.68
6565;BME280;3316;44.118;27.258;2023-08-07T08:09:13;100359.84;;;27.57;73.28
6565;BME280;3316;44.118;27.258;2023-08-07T08:11:39;100354.00;;;27.41;70.91
6565;BME280;3316;44.118;27.258;2023-08-07T08:14:04;100357.16;;;27.57;76.75
6565;BME280;3316;44.118;27.258;2023-08-07T08:16:30;100354.91;;;27.83;78.22
6565;BME280;3316;44.118;27.258;2023-08-07T08:18:55;100367.19;;;28.07;68.96
6565;BME280;3316;44.118;27.258;2023-08-07T08:21:21;100371.78;;;28.37;69.85
6565;BME280;3316;44.118;27.258;2023-08-07T08:23:46;100367.88;;;28.00;67.56
6565;BME280;3316;44.118;27.258;2023-08-07T08:26:12;100372.41;;;27.79;68.26
6565;BME280;3316;44.118;27.258;2023-08-07T08:28:38;100370.63;;;28.09;66.55
6565;BME280;3316;44.118;27.258;2023-08-07T08:31:03;100368.88;;;28.29;69.07
6565;BME280;3316;44.118;27.258;2023-08-07T08:33:28;100386.28;;;28.36;68.26
6565;BME280;3316;44.118;27.258;2023-08-07T08:35:54;100376.47;;;28.65;69.32
6565;BME280;3316;44.118;27.258;2023-08-07T08:38:19;100377.66;;;28.72;69.43
6565;BME280;3316;44.118;27.258;2023-08-07T08:40:47;100386.06;;;28.69;65.61
6565;BME280;3316;44.118;27.258;2023-08-07T08:43:14;100377.28;;;28.86;65.32
6565;BME280;3316;44.118;27.258;2023-08-07T08:45:40;100371.78;;;28.67;65.98
6565;BME280;3316;44.118;27.258;2023-08-07T08:48:07;100377.84;;;28.80;65.13
6565;BME280;3316;44.118;27.258;2023-08-07T08:50:34;100378.03;;;28.98;61.14
6565;BME280;3316;44.118;27.258;2023-08-07T08:53:02;100377.97;;;28.79;60.50
6565;BME280;3316;44.118;27.258;2023-08-07T08:55:28;100385.59;;;28.94;63.92
6565;BME280;3316;44.118;27.258;2023-08-07T08:57:54;100381.69;;;28.87;63.39
6565;BME280;3316;44.118;27.258;2023-08-07T09:00:21;100391.13;;;29.02;59.87
6565;BME280;3316;44.118;27.258;2023-08-07T09:02:49;100386.50;;;29.14;61.56
6565;BME280;3316;44.118;27.258;2023-08-07T09:05:16;100391.66;;;29.36;60.66
6565;BME280;3316;44.118;27.258;2023-08-07T09:07:42;100396.38;;;29.25;59.45
6565;BME280;3316;44.118;27.258;2023-08-07T09:10:09;100388.53;;;29.31;62.44
6565;BME280;3316;44.118;27.258;2023-08-07T09:12:37;100387.00;;;28.98;56.51
6565;BME280;3316;44.118;27.258;2023-08-07T09:15:05;100401.72;;;29.06;59.85
6565;BME280;3316;44.118;27.258;2023-08-07T09:17:37;100399.72;;;28.98;58.11
6565;BME280;3316;44.118;27.258;2023-08-07T09:20:04;100397.31;;;29.14;59.53
6565;BME280;3316;44.118;27.258;2023-08-07T09:22:31;100396.38;;;29.25;57.13
6565;BME280;3316;44.118;27.258;2023-08-07T09:24:57;100400.03;;;29.14;56.48
6565;BME280;3316;44.118;27.258;2023-08-07T09:27:25;100396.13;;;28.97;55.78
6565;BME280;3316;44.118;27.258;2023-08-07T09:29:51;100399.63;;;29.19;56.30
6565;BME280;3316;44.118;27.258;2023-08-07T09:32:16;100399.38;;;29.22;56.84
6565;BME280;3316;44.118;27.258;2023-08-07T09:34:43;100402.53;;;29.46;53.20
6565;BME280;3316;44.118;27.258;2023-08-07T09:37:09;100401.38;;;29.29;52.50
6565;BME280;3316;44.118;27.258;2023-08-07T09:39:36;100416.78;;;29.67;52.00
6565;BME280;3316;44.118;27.258;2023-08-07T09:42:04;100415.97;;;29.66;50.28
6565;BME280;3316;44.118;27.258;2023-08-07T09:44:37;100419.81;;;29.45;49.56
6565;BME280;3316;44.118;27.258;2023-08-07T09:47:14;100441.09;;;29.59;48.76
6565;BME280;3316;44.118;27.258;2023-08-07T09:49:40;100423.66;;;29.52;48.94
6565;BME280;3316;44.118;27.258;2023-08-07T09:52:07;100425.22;;;29.45;50.92
6565;BME280;3316;44.118;27.258;2023-08-07T09:54:33;100435.50;;;29.60;49.79
6565;BME280;3316;44.118;27.258;2023-08-07T09:57:01;100428.84;;;29.74;51.13
6565;BME280;3316;44.118;27.258;2023-08-07T09:59:27;100437.50;;;29.49;52.44
6565;BME280;3316;44.118;27.258;2023-08-07T10:01:54;100421.94;;;29.51;50.06
6565;BME280;3316;44.118;27.258;2023-08-07T10:04:21;100422.53;;;29.64;49.71
6565;BME280;3316;44.118;27.258;2023-08-07T10:06:47;100430.81;;;29.62;49.99
6565;BME280;3316;44.118;27.258;2023-08-07T10:09:13;100431.94;;;29.60;50.58
6565;BME280;3316;44.118;27.258;2023-08-07T10:11:39;100430.28;;;29.78;50.47
6565;BME280;3316;44.118;27.258;2023-08-07T10:14:10;100424.09;;;29.66;48.31
6565;BME280;3316;44.118;27.258;2023-08-07T10:16:38;100423.66;;;29.61;47.73
6565;BME280;3316;44.118;27.258;2023-08-07T10:19:08;100433.66;;;29.70;47.81
6565;BME280;3316;44.118;27.258;2023-08-07T10:21:43;100424.28;;;29.84;45.60
6565;BME280;3316;44.118;27.258;2023-08-07T10:24:10;100428.53;;;29.86;47.13
6565;BME280;3316;44.118;27.258;2023-08-07T10:26:41;100413.22;;;30.14;45.98
6565;BME280;3316;44.118;27.258;2023-08-07T10:29:11;100419.69;;;30.13;47.62
6565;BME280;3316;44.118;27.258;2023-08-07T10:31:39;100432.09;;;29.97;47.26
6565;BME280;3316;44.118;27.258;2023-08-07T10:34:07;100409.28;;;29.80;47.44
6565;BME280;3316;44.118;27.258;2023-08-07T10:36:33;100422.66;;;30.10;47.58
6565;BME280;3316;44.118;27.258;2023-08-07T10:39:07;100389.50;;;30.16;45.92
6565;BME280;3316;44.118;27.258;2023-08-07T10:41:46;100419.81;;;30.31;46.63
6565;BME280;3316;44.118;27.258;2023-08-07T10:46:51;100427.78;;;30.23;43.64
6565;BME280;3316;44.118;27.258;2023-08-07T10:49:38;100411.66;;;30.02;44.05
6565;BME280;3316;44.118;27.258;2023-08-07T10:52:12;100419.69;;;30.04;45.04
6565;BME280;3316;44.118;27.258;2023-08-07T10:54:44;100416.53;;;30.08;46.80
6565;BME280;3316;44.118;27.258;2023-08-07T10:57:14;100414.66;;;30.18;44.10
6565;BME280;3316;44.118;27.258;2023-08-07T10:59:50;100398.78;;;30.14;45.21
6565;BME280;3316;44.118;27.258;2023-08-07T11:02:26;100408.13;;;30.02;46.07
6565;BME280;3316;44.118;27.258;2023-08-07T11:04:52;100402.00;;;29.90;46.58
6565;BME280;3316;44.118;27.258;2023-08-07T11:07:26;100412.38;;;30.23;44.97
6565;BME280;3316;44.118;27.258;2023-08-07T11:09:53;100416.09;;;30.32;45.64
6565;BME280;3316;44.118;27.258;2023-08-07T11:12:19;100422.53;;;30.31;45.47
6565;BME280;3316;44.118;27.258;2023-08-07T11:14:44;100404.81;;;30.17;44.04
6565;BME280;3316;44.118;27.258;2023-08-07T11:17:09;100415.38;;;30.20;45.25
6565;BME280;3316;44.118;27.258;2023-08-07T11:19:35;100386.28;;;29.94;46.35
6565;BME280;3316;44.118;27.258;2023-08-07T11:22:01;100395.28;;;30.04;44.96
6565;BME280;3316;44.118;27.258;2023-08-07T11:24:27;100410.41;;;29.97;44.16
6565;BME280;3316;44.118;27.258;2023-08-07T11:26:53;100416.81;;;30.15;44.33
6565;BME280;3316;44.118;27.258;2023-08-07T11:29:21;100395.06;;;30.34;45.55
6565;BME280;3316;44.118;27.258;2023-08-07T11:31:48;100415.09;;;30.33;46.04
6565;BME280;3316;44.118;27.258;2023-08-07T11:34:13;100414.59;;;30.47;44.38
6565;BME280;3316;44.118;27.258;2023-08-07T11:36:43;100420.53;;;30.23;45.76
6565;BME280;3316;44.118;27.258;2023-08-07T11:39:08;100419.22;;;30.37;44.65
6565;BME280;3316;44.118;27.258;2023-08-07T11:41:34;100423.94;;;30.25;44.58
6565;BME280;3316;44.118;27.258;2023-08-07T11:43:59;100420.97;;;30.09;45.67
6565;BME280;3316;44.118;27.258;2023-08-07T11:46:25;100423.50;;;30.20;44.73
6565;BME280;3316;44.118;27.258;2023-08-07T11:48:52;100414.66;;;30.18;45.67
6565;BME280;3316;44.118;27.258;2023-08-07T11:51:19;100423.50;;;30.30;44.43
6565;BME280;3316;44.118;27.258;2023-08-07T11:53:45;100422.91;;;30.45;45.16
6565;BME280;3316;44.118;27.258;2023-08-07T11:56:12;100414.13;;;30.61;44.23
6565;BME280;3316;44.118;27.258;2023-08-07T11:58:42;100408.25;;;30.65;43.02
6565;BME280;3316;44.118;27.258;2023-08-07T12:01:14;100409.22;;;30.74;41.86
6565;BME280;3316;44.118;27.258;2023-08-07T12:06:16;100389.56;;;30.53;44.84
6565;BME280;3316;44.118;27.258;2023-08-07T12:08:42;100398.03;;;30.50;42.66
6565;BME280;3316;44.118;27.258;2023-08-07T12:11:10;100394.03;;;30.81;43.47
6565;BME280;3316;44.118;27.258;2023-08-07T12:13:43;100395.63;;;30.84;41.20
6565;BME280;3316;44.118;27.258;2023-08-07T12:16:10;100401.47;;;30.89;41.21
6565;BME280;3316;44.118;27.258;2023-08-07T12:18:43;100388.59;;;30.81;43.04
6565;BME280;3316;44.118;27.258;2023-08-07T12:21:09;100395.22;;;30.69;43.73
6565;BME280;3316;44.118;27.258;2023-08-07T12:23:35;100391.47;;;30.89;43.08
6565;BME280;3316;44.118;27.258;2023-08-07T12:26:02;100401.72;;;30.95;43.92
6565;BME280;3316;44.118;27.258;2023-08-07T12:28:28;100406.59;;;30.92;44.77
6565;BME280;3316;44.118;27.258;2023-08-07T12:30:54;100401.94;;;31.02;44.36
6565;BME280;3316;44.118;27.258;2023-08-07T12:33:19;100405.00;;;30.99;44.01
6565;BME280;3316;44.118;27.258;2023-08-07T12:35:45;100390.47;;;30.81;43.02
6565;BME280;3316;44.118;27.258;2023-08-07T12:38:11;100395.50;;;30.76;42.86
6565;BME280;3316;44.118;27.258;2023-08-07T12:40:39;100401.31;;;30.81;43.29
6565;BME280;3316;44.118;27.258;2023-08-07T12:43:05;100390.28;;;30.82;42.82
6565;BME280;3316;44.118;27.258;2023-08-07T12:45:31;100397.13;;;30.96;42.48
6565;BME280;3316;44.118;27.258;2023-08-07T12:47:57;100400.66;;;31.06;41.83
6565;BME280;3316;44.118;27.258;2023-08-07T12:50:23;100402.16;;;31.18;42.46
6565;BME280;3316;44.118;27.258;2023-08-07T12:52:48;100404.31;;;31.14;42.33
6565;BME280;3316;44.118;27.258;2023-08-07T12:55:14;100404.66;;;31.02;41.01
6565;BME280;3316;44.118;27.258;2023-08-07T12:57:43;100400.97;;;31.03;42.16
6565;BME280;3316;44.118;27.258;2023-08-07T13:00:12;100407.22;;;31.13;42.80
6565;BME280;3316;44.118;27.258;2023-08-07T13:02:46;100401.75;;;31.40;42.71
6565;BME280;3316;44.118;27.258;2023-08-07T13:05:13;100404.63;;;31.29;41.70